Observation data for Memphis on 05/25/2019      Previous  Date  Next       Current Mesonet Observations  Soil Data  Daily Summary Page  Observations in Plain Language
KMES 250500Z 35000KT 17/16 A2997 RMK A01 T01720157  RH  095%=      5-min Rain = 0
KMES 250505Z 29001KT 17/16 A2997 RMK A01 T01710156  RH  095%=      5-min Rain = 0
KMES 250510Z 11001KT 17/16 A2996 RMK A01 T01710157  RH  096%=      5-min Rain = 0
KMES 250515Z 10005KT 17/16 A2995 RMK A01 T01700156  RH  096%=      5-min Rain = 0
KMES 250520Z 11003KT 17/16 A2995 RMK A01 T01700157  RH  096%=      5-min Rain = 0
KMES 250525Z 11005KT 17/16 A2994 RMK A01 T01700157  RH  096%=      5-min Rain = 0
KMES 250530Z 12002KT 17/16 A2994 RMK A01 T01700157  RH  096%=      5-min Rain = 0
KMES 250535Z 30002KT 17/16 A2995 RMK A01 T01700157  RH  097%=      5-min Rain = 0
KMES 250540Z 31003KT 17/16 A2995 RMK A01 T01710158  RH  097%=      5-min Rain = 0
KMES 250545Z 13002KT 17/16 A2995 RMK A01 T01710158  RH  096%=      5-min Rain = 0
KMES 250550Z 14004KT 17/16 A2995 RMK A01 T01700157  RH  096%=      5-min Rain = 0
KMES 250555Z 15005KT 17/16 A2995 RMK A01 T01710158  RH  096%=      5-min Rain = 0
KMES 250600Z 14005KT 17/16 A2995 RMK A01 T01710158  RH  096%=      5-min Rain = 0
KMES 250605Z 14003KT 17/16 A2995 RMK A01 T01710157  RH  096%=      5-min Rain = 0
KMES 250610Z 14005KT 17/16 A2995 RMK A01 T01710158  RH  096%=      5-min Rain = 0
KMES 250615Z 14005KT 17/16 A2995 RMK A01 T01710157  RH  096%=      5-min Rain = 0
KMES 250620Z 15007KT 17/16 A2994 RMK A01 T01710157  RH  096%=      5-min Rain = 0
KMES 250625Z 16006KT 17/16 A2994 RMK A01 T01720157  RH  095%=      5-min Rain = 0
KMES 250630Z 16005KT 17/16 A2994 RMK A01 T01730158  RH  095%=      5-min Rain = 0
KMES 250635Z 16005KT 17/16 A2995 RMK A01 T01740158  RH  095%=      5-min Rain = 0
KMES 250640Z 15004KT 17/16 A2995 RMK A01 T01740157  RH  094%=      5-min Rain = 0
KMES 250645Z 16003KT 17/16 A2995 RMK A01 T01730156  RH  094%=      5-min Rain = 0
KMES 250650Z 17002KT 17/16 A2995 RMK A01 T01720156  RH  094%=      5-min Rain = 0
KMES 250655Z 16002KT 17/16 A2995 RMK A01 T01720155  RH  094%=      5-min Rain = 0
KMES 250700Z 16003KT 17/16 A2994 RMK A01 T01710155  RH  094%=      5-min Rain = 0
KMES 250705Z 15003KT 17/16 A2994 RMK A01 T01710155  RH  094%=      5-min Rain = 0
KMES 250710Z 13002KT 17/15 A2994 RMK A01 T01700154  RH  094%=      5-min Rain = 0
KMES 250715Z 13002KT 17/15 A2994 RMK A01 T01690153  RH  094%=      5-min Rain = 0
KMES 250720Z 14003KT 17/15 A2994 RMK A01 T01680153  RH  095%=      5-min Rain = 0
KMES 250725Z 14004KT 17/15 A2994 RMK A01 T01690154  RH  095%=      5-min Rain = 0
KMES 250730Z 14005KT 17/16 A2994 RMK A01 T01700155  RH  095%=      5-min Rain = 0
KMES 250735Z 14006KT 17/16 A2994 RMK A01 T01710157  RH  095%=      5-min Rain = 0
KMES 250740Z 14006KT 17/16 A2994 RMK A01 T01720157  RH  095%=      5-min Rain = 0
KMES 250745Z 14006KT 17/16 A2994 RMK A01 T01720157  RH  095%=      5-min Rain = 0
KMES 250750Z 15007KT 17/16 A2994 RMK A01 T01720157  RH  096%=      5-min Rain = 0
KMES 250755Z 15007KT 17/16 A2994 RMK A01 T01720158  RH  096%=      5-min Rain = 0
KMES 250800Z 14008KT 17/16 A2994 RMK A01 T01730159  RH  096%=      5-min Rain = 0
KMES 250805Z 14007KT 17/16 A2994 RMK A01 T01740160  RH  096%=      5-min Rain = 0
KMES 250810Z 14007KT 17/16 A2994 RMK A01 T01740160  RH  096%=      5-min Rain = 0
KMES 250815Z 14007KT 17/16 A2994 RMK A01 T01740160  RH  096%=      5-min Rain = 0
KMES 250820Z 14008KT 17/16 A2994 RMK A01 T01740160  RH  096%=      5-min Rain = 0
KMES 250825Z 13008KT 17/16 A2993 RMK A01 T01740160  RH  096%=      5-min Rain = 0
KMES 250830Z 13008KT 17/16 A2993 RMK A01 T01740160  RH  096%=      5-min Rain = 0
KMES 250835Z 13007KT 17/16 A2994 RMK A01 T01740161  RH  096%=      5-min Rain = 0
KMES 250840Z 13007KT 17/16 A2994 RMK A01 T01740161  RH  096%=      5-min Rain = 0
KMES 250845Z 12007KT 18/16 A2994 RMK A01 T01750162  RH  096%=      5-min Rain = 0
KMES 250850Z 12006KT 18/16 A2994 RMK A01 T01750162  RH  096%=      5-min Rain = 0
KMES 250855Z 11005KT 18/16 A2994 RMK A01 T01750162  RH  096%=      5-min Rain = 0
KMES 250900Z 11005KT 18/16 A2994 RMK A01 T01750162  RH  096%=      5-min Rain = 0
KMES 250905Z 12007KT 18/16 A2994 RMK A01 T01750162  RH  096%=      5-min Rain = 0
KMES 250910Z 13007KT 18/16 A2994 RMK A01 T01760163  RH  096%=      5-min Rain = 0
KMES 250915Z 13007KT 18/16 A2994 RMK A01 T01760163  RH  097%=      5-min Rain = 0
KMES 250920Z 14006KT 18/16 A2994 RMK A01 T01760163  RH  097%=      5-min Rain = 0
KMES 250925Z 15004KT 18/16 A2994 RMK A01 T01770164  RH  097%=      5-min Rain = 0
KMES 250930Z 14004KT 18/16 A2994 RMK A01 T01770164  RH  097%=      5-min Rain = 0
KMES 250935Z 14005KT 18/16 A2994 RMK A01 T01770164  RH  097%=      5-min Rain = 0
KMES 250940Z 15003KT 18/16 A2994 RMK A01 T01770164  RH  097%=      5-min Rain = 0
KMES 250945Z 18002KT 18/16 A2995 RMK A01 T01770164  RH  097%=      5-min Rain = 0
KMES 250950Z 20002KT 18/16 A2995 RMK A01 T01770164  RH  097%=      5-min Rain = 0
KMES 250955Z 18002KT 18/17 A2995 RMK A01 T01770165  RH  097%=      5-min Rain = 0
KMES 251000Z 17002KT 18/17 A2995 RMK A01 T01780165  RH  097%=      5-min Rain = 0
KMES 251005Z 17002KT 18/17 A2996 RMK A01 T01780166  RH  097%=      5-min Rain = 0
KMES 251010Z 16003KT 18/17 A2996 RMK A01 T01790166  RH  097%=      5-min Rain = 0
KMES 251015Z 16003KT 18/17 A2996 RMK A01 T01790167  RH  097%=      5-min Rain = 0
KMES 251020Z 15003KT 18/17 A2996 RMK A01 T01790167  RH  097%=      5-min Rain = 0
KMES 251025Z 15003KT 18/17 A2996 RMK A01 T01790167  RH  097%=      5-min Rain = 0
KMES 251030Z 15003KT 18/17 A2996 RMK A01 T01790167  RH  097%=      5-min Rain = 0
KMES 251035Z 16003KT 18/17 A2996 RMK A01 T01790167  RH  097%=      5-min Rain = 0
KMES 251040Z 16003KT 18/17 A2996 RMK A01 T01790167  RH  097%=      5-min Rain = 0
KMES 251045Z 15003KT 18/17 A2996 RMK A01 T01790167  RH  098%=      5-min Rain = 0
KMES 251050Z 16003KT 18/17 A2996 RMK A01 T01790167  RH  098%=      5-min Rain = 0
KMES 251055Z 16003KT 18/17 A2996 RMK A01 T01790167  RH  098%=      5-min Rain = 0
KMES 251100Z 17003KT 18/17 A2996 RMK A01 T01790167  RH  098%=      5-min Rain = 0
KMES 251105Z 18003KT 18/17 A2996 RMK A01 T01790168  RH  098%=      5-min Rain = 0
KMES 251110Z 18003KT 18/17 A2996 RMK A01 T01790168  RH  098%=      5-min Rain = 0
KMES 251115Z 16004KT 18/17 A2996 RMK A01 T01790168  RH  098%=      5-min Rain = 0
KMES 251120Z 16004KT 18/17 A2996 RMK A01 T01790169  RH  098%=      5-min Rain = 0
KMES 251125Z 17004KT 18/17 A2996 RMK A01 T01790168  RH  098%=      5-min Rain = 0
KMES 251130Z 16004KT 18/17 A2996 RMK A01 T01790169  RH  098%=      5-min Rain = 0
KMES 251135Z 16004KT 18/17 A2996 RMK A01 T01790169  RH  098%=      5-min Rain = 0
KMES 251140Z 17003KT 18/17 A2997 RMK A01 T01790169  RH  098%=      5-min Rain = 0
KMES 251145Z 16004KT 18/17 A2997 RMK A01 T01800170  RH  099%=      5-min Rain = 0
KMES 251150Z 16003KT 18/17 A2997 RMK A01 T01800170  RH  099%=      5-min Rain = 0
KMES 251155Z 15002KT 18/17 A2997 RMK A01 T01800170  RH  099%=      5-min Rain = 0
KMES 251200Z 14002KT 18/17 A2997 RMK A01 T01800170  RH  099%=      5-min Rain = 0
KMES 251205Z 13002KT 18/17 A2997 RMK A01 T01810171  RH  099%=      5-min Rain = 0
KMES 251210Z 13003KT 18/17 A2997 RMK A01 T01810171  RH  099%=      5-min Rain = 0
KMES 251215Z 13002KT 18/17 A2997 RMK A01 T01810172  RH  099%=      5-min Rain = 0
KMES 251220Z 15001KT 18/17 A2998 RMK A01 T01820172  RH  099%=      5-min Rain = 0
KMES 251225Z 16001KT 18/17 A2998 RMK A01 T01830173  RH  099%=      5-min Rain = 0
KMES 251230Z 16002KT 18/17 A2998 RMK A01 T01840174  RH  099%=      5-min Rain = 0
KMES 251235Z 14003KT 18/18 A2998 RMK A01 T01840175  RH  099%=      5-min Rain = 0
KMES 251240Z 14003KT 19/18 A2998 RMK A01 T01860176  RH  099%=      5-min Rain = 0
KMES 251245Z 14004KT 19/18 A2999 RMK A01 T01870177  RH  099%=      5-min Rain = 0
KMES 251250Z 15004KT 19/18 A2999 RMK A01 T01880178  RH  099%=      5-min Rain = 0
KMES 251255Z 15004KT 19/18 A2999 RMK A01 T01890179  RH  099%=      5-min Rain = 0
KMES 251300Z 14004KT 19/18 A2999 RMK A01 T01900180  RH  099%=      5-min Rain = 0
KMES 251305Z 15004KT 19/18 A2999 RMK A01 T01910181  RH  099%=      5-min Rain = 0
KMES 251310Z 14005KT 19/18 A2999 RMK A01 T01920182  RH  099%=      5-min Rain = 0
KMES 251315Z 16004KT 19/18 A2999 RMK A01 T01930183  RH  099%=      5-min Rain = 0
KMES 251320Z 16005KT 20/19 A2999 RMK A01 T01950185  RH  099%=      5-min Rain = 0
KMES 251325Z 16005KT 20/19 A2999 RMK A01 T01960185  RH  099%=      5-min Rain = 0
KMES 251330Z 16006KT 20/19 A2999 RMK A01 T01960186  RH  099%=      5-min Rain = 0
KMES 251335Z 16006KT 20/19 A2999 RMK A01 T01970186  RH  099%=      5-min Rain = 0
KMES 251340Z 16006KT 20/19 A2999 RMK A01 T01970186  RH  099%=      5-min Rain = 0
KMES 251345Z 15007KT 20/19 A2999 RMK A01 T01980187  RH  099%=      5-min Rain = 0
KMES 251350Z 15006KT 20/19 A2999 RMK A01 T01990188  RH  099%=      5-min Rain = 0
KMES 251355Z 15007KT 20/19 A2999 RMK A01 T02000189  RH  098%=      5-min Rain = 0
KMES 251400Z 14005KT 20/19 A2999 RMK A01 T02020190  RH  098%=      5-min Rain = 0
KMES 251405Z 15005KT 20/19 A2999 RMK A01 T02030191  RH  098%=      5-min Rain = 0
KMES 251410Z 14005KT 20/19 A2999 RMK A01 T02040192  RH  098%=      5-min Rain = 0
KMES 251415Z 16005KT 20/19 A2999 RMK A01 T02040192  RH  098%=      5-min Rain = 0
KMES 251420Z 15007KT 21/19 A30 RMK A01 T02050192  RH  098%=      5-min Rain = 0
KMES 251425Z 16005KT 21/19 A30 RMK A01 T02050192  RH  098%=      5-min Rain = 0
KMES 251430Z 16006KT 21/19 A30 RMK A01 T02060193  RH  097%=      5-min Rain = 0
KMES 251435Z 16005KT 21/19 A30 RMK A01 T02060193  RH  097%=      5-min Rain = 0
KMES 251440Z 17005KT 21/19 A30 RMK A01 T02060193  RH  097%=      5-min Rain = 0
KMES 251445Z 17004KT 21/20 A30 RMK A01 T02090195  RH  097%=      5-min Rain = 0
KMES 251450Z 16005KT 21/20 A30 RMK A01 T02110197  RH  097%=      5-min Rain = 0
KMES 251455Z 17005KT 21/20 A3001 RMK A01 T02120197  RH  096%=      5-min Rain = 0
KMES 251500Z 16006KT 21/20 A3001 RMK A01 T02130197  RH  096%=      5-min Rain = 0
KMES 251505Z 17006KT 21/20 A3001 RMK A01 T02140197  RH  095%=      5-min Rain = 0
KMES 251510Z 17005G10KT 21/20 A3001 RMK A01 T02140197  RH  095%=      5-min Rain = 0
KMES 251515Z 16005KT 22/20 A3001 RMK A01 T02150197  RH  095%=      5-min Rain = 0
KMES 251520Z 18006KT 22/20 A3001 RMK A01 T02150197  RH  094%=      5-min Rain = 0
KMES 251525Z 17006KT 22/20 A3001 RMK A01 T02160197  RH  094%=      5-min Rain = 0
KMES 251530Z 17005KT 22/20 A3001 RMK A01 T02160197  RH  094%=      5-min Rain = 0
KMES 251535Z 18008G13KT 22/20 A30 RMK A01 T02170197  RH  093%=      5-min Rain = 0
KMES 251540Z 17006KT 22/20 A30 RMK A01 T02190197  RH  093%=      5-min Rain = 0
KMES 251545Z 16008KT 22/20 A30 RMK A01 T02200197  RH  092%=      5-min Rain = 0
KMES 251550Z 17009KT 22/20 A30 RMK A01 T02210197  RH  091%=      5-min Rain = 0
KMES 251555Z 17006G11KT 22/20 A30 RMK A01 T02230198  RH  091%=      5-min Rain = 0
KMES 251600Z 18008KT 22/20 A30 RMK A01 T02240198  RH  090%=      5-min Rain = 0
KMES 251605Z 17007KT 22/20 A30 RMK A01 T02240197  RH  090%=      5-min Rain = 0
KMES 251610Z 18006KT 23/20 A30 RMK A01 T02250198  RH  090%=      5-min Rain = 0
KMES 251615Z 18006KT 23/20 A30 RMK A01 T02260198  RH  089%=      5-min Rain = 0
KMES 251620Z 17005G10KT 23/20 A30 RMK A01 T02260198  RH  089%=      5-min Rain = 0
KMES 251625Z 17005KT 23/20 A30 RMK A01 T02270199  RH  089%=      5-min Rain = 0
KMES 251630Z 16005KT 23/20 A30 RMK A01 T02270199  RH  089%=      5-min Rain = 0
KMES 251635Z 16007KT 23/20 A30 RMK A01 T02280200  RH  089%=      5-min Rain = 0
KMES 251640Z 17006KT 23/20 A30 RMK A01 T02290202  RH  089%=      5-min Rain = 0
KMES 251645Z 16006KT 23/20 A2999 RMK A01 T02330204  RH  089%=      5-min Rain = 0
KMES 251650Z 17008KT 23/20 A30 RMK A01 T02340202  RH  087%=      5-min Rain = 0
KMES 251655Z 17008G14KT 23/20 A2999 RMK A01 T02340202  RH  087%=      5-min Rain = 0
KMES 251700Z 17007KT 24/20 A2999 RMK A01 T02360202  RH  086%=      5-min Rain = 0
KMES 251705Z 16007KT 24/20 A2999 RMK A01 T02380204  RH  086%=      5-min Rain = 0
KMES 251710Z 17007KT 24/20 A2999 RMK A01 T02400204  RH  086%=      5-min Rain = 0
KMES 251715Z 17008G13KT 24/20 A2999 RMK A01 T02420204  RH  084%=      5-min Rain = 0
KMES 251720Z 18011G16KT 24/20 A2999 RMK A01 T02430201  RH  082%=      5-min Rain = 0
KMES 251725Z 18010G15KT 24/20 A2999 RMK A01 T02430201  RH  082%=      5-min Rain = 0
KMES 251730Z 16009G16KT 25/20 A2999 RMK A01 T02450203  RH  082%=      5-min Rain = 0
KMES 251735Z 17008KT 25/20 A2999 RMK A01 T02460203  RH  082%=      5-min Rain = 0
KMES 251740Z 17011G16KT 25/20 A2999 RMK A01 T02460201  RH  080%=      5-min Rain = 0
KMES 251745Z 16010KT 25/20 A2999 RMK A01 T02450199  RH  080%=      5-min Rain = 0
KMES 251750Z 17009G14KT 25/20 A2999 RMK A01 T02450200  RH  080%=      5-min Rain = 0
KMES 251755Z 17007G13KT 25/20 A2999 RMK A01 T02460202  RH  081%=      5-min Rain = 0
KMES 251800Z 17009G14KT 25/20 A2998 RMK A01 T02480202  RH  080%=      5-min Rain = 0
KMES 251805Z 16009G15KT 25/20 A2998 RMK A01 T02520204  RH  079%=      5-min Rain = 0
KMES 251810Z 16012G18KT 25/20 A2998 RMK A01 T02530203  RH  078%=      5-min Rain = 0
KMES 251815Z 16010G15KT 25/21 A2998 RMK A01 T02540205  RH  079%=      5-min Rain = 0
KMES 251820Z 16012G17KT 25/20 A2998 RMK A01 T02540204  RH  078%=      5-min Rain = 0
KMES 251825Z 16014KT 25/20 A2997 RMK A01 T02540203  RH  077%=      5-min Rain = 0
KMES 251830Z 16012KT 25/20 A2998 RMK A01 T02540202  RH  077%=      5-min Rain = 0
KMES 251835Z 16012G18KT 25/20 A2998 RMK A01 T02520203  RH  079%=      5-min Rain = 0
KMES 251840Z 17013G19KT 25/20 A2998 RMK A01 T02520203  RH  079%=      5-min Rain = 0
KMES 251845Z 17013G19KT 25/20 A2998 RMK A01 T02520202  RH  078%=      5-min Rain = 0
KMES 251850Z 17011G17KT 25/20 A2997 RMK A01 T02520202  RH  079%=      5-min Rain = 0
KMES 251855Z 16008G14KT 25/21 A2997 RMK A01 T02530206  RH  079%=      5-min Rain = 0
KMES 251900Z 16009KT 25/21 A2997 RMK A01 T02530205  RH  079%=      5-min Rain = 0
KMES 251905Z 15010KT 25/20 A2996 RMK A01 T02530204  RH  079%=      5-min Rain = 0
KMES 251910Z 16009KT 25/21 A2996 RMK A01 T02540205  RH  079%=      5-min Rain = 0
KMES 251915Z 17009KT 25/21 A2996 RMK A01 T02540205  RH  079%=      5-min Rain = 0
KMES 251920Z 16010KT 25/20 A2996 RMK A01 T02530204  RH  079%=      5-min Rain = 0
KMES 251925Z 16009G15KT 25/20 A2995 RMK A01 T02530204  RH  079%=      5-min Rain = 0
KMES 251930Z 15008KT 25/21 A2995 RMK A01 T02530206  RH  079%=      5-min Rain = 0
KMES 251935Z 15009G14KT 25/21 A2995 RMK A01 T02520205  RH  080%=      5-min Rain = 0
KMES 251940Z 15008KT 25/21 A2994 RMK A01 T02510206  RH  081%=      5-min Rain = 0
KMES 251945Z 15010KT 25/21 A2994 RMK A01 T02500205  RH  081%=      5-min Rain = 0
KMES 251950Z 17008KT 25/20 A2995 RMK A01 T02500204  RH  081%=      5-min Rain = 0
KMES 251955Z 16007KT 25/20 A2996 RMK A01 T02490203  RH  081%=      5-min Rain = 0
KMES 252000Z 16006KT 25/20 A2995 RMK A01 T02480204  RH  081%=      5-min Rain = 0
KMES 252005Z 16007KT 25/20 A2994 RMK A01 T02480204  RH  082%=      5-min Rain = 0
KMES 252010Z 14007KT 25/21 A2993 RMK A01 T02480205  RH  082%=      5-min Rain = 0
KMES 252015Z 14008KT 25/21 A2993 RMK A01 T02480207  RH  083%=      5-min Rain = 0
KMES 252020Z 14008KT 25/21 A2993 RMK A01 T02480208  RH  083%=      5-min Rain = 0
KMES 252025Z 14008KT 25/21 A2993 RMK A01 T02470207  RH  083%=      5-min Rain = 0
KMES 252030Z 13008KT 25/21 A2992 RMK A01 T02470207  RH  083%=      5-min Rain = 0
KMES 252035Z 13008KT 25/21 A2993 RMK A01 T02470207  RH  083%=      5-min Rain = 0
KMES 252040Z 14007KT 25/21 A2993 RMK A01 T02460207  RH  084%=      5-min Rain = 0
KMES 252045Z 13007KT 25/21 A2993 RMK A01 T02460207  RH  084%=      5-min Rain = 0
KMES 252050Z 13007KT 25/21 A2992 RMK A01 T02450207  RH  085%=      5-min Rain = 0
KMES 252055Z 12007KT 24/21 A2992 RMK A01 T02440208  RH  085%=      5-min Rain = 0
KMES 252100Z 12008KT 24/21 A2991 RMK A01 T02430208  RH  086%=      5-min Rain = 0
KMES 252105Z 13008KT 24/21 A299 RMK A01 T02420208  RH  086%=      5-min Rain = 0
KMES 252110Z 13010KT 24/21 A2989 RMK A01 T02410208  RH  087%=      5-min Rain = 0
KMES 252115Z 14008KT 24/21 A2989 RMK A01 T02410208  RH  087%=      5-min Rain = 0
KMES 252120Z 16009KT 24/21 A2989 RMK A01 T02400208  RH  087%=      5-min Rain = 0
KMES 252125Z 15008KT 24/21 A2988 RMK A01 T02410208  RH  087%=      5-min Rain = 0
KMES 252130Z 15008KT 24/21 A2989 RMK A01 T02410208  RH  087%=      5-min Rain = 0
KMES 252135Z 16005KT 24/21 A2989 RMK A01 T02400208  RH  087%=      5-min Rain = 0
KMES 252140Z 16005KT 24/21 A2989 RMK A01 T02400208  RH  088%=      5-min Rain = 0
KMES 252145Z 16005KT 24/21 A2989 RMK A01 T02390209  RH  088%=      5-min Rain = 0
KMES 252150Z 17005KT 24/21 A299 RMK A01 T02390209  RH  089%=      5-min Rain = 0
KMES 252155Z 17006KT 24/21 A2989 RMK A01 T02380209  RH  089%=      5-min Rain = 0
KMES 252200Z 17006KT 24/21 A2988 RMK A01 T02390209  RH  089%=      5-min Rain = 0
KMES 252205Z 17006KT 24/21 A2988 RMK A01 T02400210  RH  089%=      5-min Rain = 0
KMES 252210Z 17005KT 24/21 A2988 RMK A01 T02430212  RH  088%=      5-min Rain = 0
KMES 252215Z 17007KT 25/21 A2988 RMK A01 T02480214  RH  086%=      5-min Rain = 0
KMES 252220Z 17008G13KT 25/21 A2988 RMK A01 T02530214  RH  085%=      5-min Rain = 0
KMES 252225Z 17009KT 26/21 A2989 RMK A01 T02560212  RH  082%=      5-min Rain = 0
KMES 252230Z 18008G14KT 26/21 A2988 RMK A01 T02570209  RH  080%=      5-min Rain = 0
KMES 252235Z 17008G13KT 26/21 A2989 RMK A01 T02560208  RH  079%=      5-min Rain = 0
KMES 252240Z 18009G16KT 26/21 A2989 RMK A01 T02560206  RH  078%=      5-min Rain = 0
KMES 252245Z 18008KT 26/21 A299 RMK A01 T02560205  RH  078%=      5-min Rain = 0
KMES 252250Z 20007KT 25/21 A299 RMK A01 T02540205  RH  079%=      5-min Rain = 0
KMES 252255Z 20007KT 25/21 A299 RMK A01 T02530206  RH  080%=      5-min Rain = 0
KMES 252300Z 21005KT 25/21 A2989 RMK A01 T02510206  RH  081%=      5-min Rain = 0
KMES 252305Z 22005KT 25/21 A2989 RMK A01 T02500207  RH  082%=      5-min Rain = 0
KMES 252310Z 25004KT 25/21 A2988 RMK A01 T02480207  RH  083%=      5-min Rain = 0
KMES 252315Z 27004KT 25/21 A2989 RMK A01 T02470207  RH  083%=      5-min Rain = 0
KMES 252320Z 29004KT 25/21 A2988 RMK A01 T02460207  RH  084%=      5-min Rain = 0
KMES 252325Z 28003KT 25/21 A2988 RMK A01 T02450208  RH  085%=      5-min Rain = 0
KMES 252330Z 30003KT 24/21 A2988 RMK A01 T02440208  RH  086%=      5-min Rain = 0
KMES 252335Z 30003KT 24/21 A2988 RMK A01 T02430208  RH  086%=      5-min Rain = 0
KMES 252340Z 31004KT 24/21 A2989 RMK A01 T02420209  RH  087%=      5-min Rain = 0
KMES 252345Z 32004KT 24/21 A2989 RMK A01 T02410209  RH  087%=      5-min Rain = 0
KMES 252350Z 31004KT 24/21 A2991 RMK A01 T02400209  RH  088%=      5-min Rain = 0
KMES 252355Z 31004KT 24/21 A2991 RMK A01 T02390209  RH  088%=      5-min Rain = 0
KMES 260000Z 33005KT 24/21 A2991 RMK A01 T02380208  RH  088%=      5-min Rain = 0
KMES 260005Z 30003KT 24/21 A2991 RMK A01 T02370208  RH  089%=      5-min Rain = 0
KMES 260010Z 28002KT 24/21 A2991 RMK A01 T02360208  RH  089%=      5-min Rain = 0
KMES 260015Z 34001KT 24/21 A2989 RMK A01 T02360207  RH  089%=      5-min Rain = 0
KMES 260020Z 32004KT 23/21 A2988 RMK A01 T02340207  RH  090%=      5-min Rain = 0
KMES 260025Z 28004KT 23/21 A2991 RMK A01 T02340207  RH  090%=      5-min Rain = 0
KMES 260030Z 29004KT 23/21 A2992 RMK A01 T02330207  RH  090%=      5-min Rain = 0
KMES 260035Z 31005KT 23/21 A2992 RMK A01 T02320207  RH  091%=      5-min Rain = 0
KMES 260040Z 30007KT 23/21 A2993 RMK A01 T02310207  RH  091%=      5-min Rain = 0.01
KMES 260045Z 29013G23KT 23/21 A2993 RMK A01 T02300206  RH  092%=      5-min Rain = 0.04
KMES 260050Z 25017G27KT 23/20 A2995 RMK A01 T02250199  RH  090%=      5-min Rain = 0.08
KMES 260055Z 22017G27KT 22/19 A2995 RMK A01 T02190188  RH  087%=      5-min Rain = 0.15
KMES 260100Z 23017G23KT 21/19 A2995 RMK A01 T02120185  RH  089%=      5-min Rain = 0.07
KMES 260105Z 22014G19KT 21/18 A2995 RMK A01 T02090184  RH  090%=      5-min Rain = 0.07
KMES 260110Z 18011KT 20/18 A2993 RMK A01 T02030181  RH  092%=      5-min Rain = 0.11
KMES 260115Z 18009G15KT 19/17 A2991 RMK A01 T01930172  RH  092%=      5-min Rain = 0.03
KMES 260120Z 19012KT 19/17 A2993 RMK A01 T01860166  RH  092%=      5-min Rain = 0.02
KMES 260125Z 17014G20KT 19/16 A2994 RMK A01 T01850164  RH  091%=      5-min Rain = 0.04
KMES 260130Z 17012G19KT 19/17 A2993 RMK A01 T01850165  RH  093%=      5-min Rain = 0.02
KMES 260135Z 20008G13KT 18/17 A2991 RMK A01 T01830165  RH  093%=      5-min Rain = 0.01
KMES 260140Z 22006KT 18/17 A299 RMK A01 T01830165  RH  094%=      5-min Rain = 0
KMES 260145Z 20006KT 18/16 A299 RMK A01 T01820164  RH  093%=      5-min Rain = 0
KMES 260150Z 23005KT 18/16 A2989 RMK A01 T01820164  RH  094%=      5-min Rain = 0
KMES 260155Z 20005KT 18/16 A2989 RMK A01 T01820164  RH  094%=      5-min Rain = 0
KMES 260200Z 16004KT 18/16 A299 RMK A01 T01810164  RH  094%=      5-min Rain = 0
KMES 260205Z 23003KT 18/16 A2989 RMK A01 T01800163  RH  094%=      5-min Rain = 0
KMES 260210Z 24003KT 18/16 A2989 RMK A01 T01800164  RH  095%=      5-min Rain = 0
KMES 260215Z 26002KT 18/16 A2989 RMK A01 T01790163  RH  095%=      5-min Rain = 0
KMES 260220Z 26003KT 18/16 A2989 RMK A01 T01790163  RH  095%=      5-min Rain = 0
KMES 260225Z 25004KT 18/16 A2989 RMK A01 T01780163  RH  095%=      5-min Rain = 0
KMES 260230Z 21004KT 18/16 A2989 RMK A01 T01780164  RH  096%=      5-min Rain = 0
KMES 260235Z 21004KT 18/17 A2989 RMK A01 T01790165  RH  096%=      5-min Rain = 0
KMES 260240Z 22004KT 18/17 A2989 RMK A01 T01800166  RH  096%=      5-min Rain = 0
KMES 260245Z 22004KT 18/17 A2989 RMK A01 T01800166  RH  096%=      5-min Rain = 0
KMES 260250Z 21004KT 18/17 A299 RMK A01 T01800166  RH  096%=      5-min Rain = 0
KMES 260255Z 21004KT 18/17 A299 RMK A01 T01800165  RH  096%=      5-min Rain = 0
KMES 260300Z 20004KT 18/17 A299 RMK A01 T01790165  RH  096%=      5-min Rain = 0
KMES 260305Z 20003KT 18/17 A299 RMK A01 T01790165  RH  096%=      5-min Rain = 0
KMES 260310Z 18002KT 18/16 A2991 RMK A01 T01790164  RH  096%=      5-min Rain = 0
KMES 260315Z 16002KT 18/16 A2991 RMK A01 T01780164  RH  096%=      5-min Rain = 0
KMES 260320Z 15002KT 18/17 A2991 RMK A01 T01780165  RH  096%=      5-min Rain = 0
KMES 260325Z 16003KT 18/17 A2992 RMK A01 T01780165  RH  096%=      5-min Rain = 0
KMES 260330Z 17003KT 18/17 A2993 RMK A01 T01780165  RH  097%=      5-min Rain = 0
KMES 260335Z 17002KT 18/17 A2993 RMK A01 T01780165  RH  097%=      5-min Rain = 0
KMES 260340Z 14002KT 18/17 A2993 RMK A01 T01780165  RH  097%=      5-min Rain = 0
KMES 260345Z 09002KT 18/16 A2994 RMK A01 T01770164  RH  097%=      5-min Rain = 0
KMES 260350Z 09002KT 18/16 A2994 RMK A01 T01770164  RH  097%=      5-min Rain = 0
KMES 260355Z 09002KT 18/16 A2994 RMK A01 T01770164  RH  097%=      5-min Rain = 0
KMES 260400Z 10002KT 18/16 A2994 RMK A01 T01760164  RH  097%=      5-min Rain = 0
KMES 260405Z 10003KT 18/16 A2994 RMK A01 T01760164  RH  097%=      5-min Rain = 0
KMES 260410Z 09003KT 18/16 A2994 RMK A01 T01750163  RH  097%=      5-min Rain = 0
KMES 260415Z 08003KT 18/16 A2994 RMK A01 T01750163  RH  097%=      5-min Rain = 0
KMES 260420Z 10002KT 17/16 A2994 RMK A01 T01740162  RH  097%=      5-min Rain = 0
KMES 260425Z 08004G9KT 17/16 A2995 RMK A01 T01740162  RH  097%=      5-min Rain = 0
KMES 260430Z 08005KT 17/16 A2995 RMK A01 T01740163  RH  098%=      5-min Rain = 0
KMES 260435Z 08004KT 17/16 A2994 RMK A01 T01740163  RH  097%=      5-min Rain = 0
KMES 260440Z 08003KT 17/16 A2994 RMK A01 T01740162  RH  097%=      5-min Rain = 0
KMES 260445Z 07004KT 17/16 A2994 RMK A01 T01740161  RH  097%=      5-min Rain = 0
KMES 260450Z 05005KT 17/16 A2994 RMK A01 T01740161  RH  097%=      5-min Rain = 0
KMES 260455Z 05003KT 17/16 A2994 RMK A01 T01740161  RH  097%=      5-min Rain = 0

Page generated in 0.0095 seconds.